Time;durP1;ratioP1;P1;durP2;ratioP2;P2;SDS_P1;SDS_P2;PMS_P1;PMS_P2;Temp;Humidity;BMP_temperature;BMP_pressure;BME280_temperature;BME280_humidity;BME280_pressure;Samples;Min_cycle;Max_cycle;Signal;HPM_P1;HPM_P2
2021/06/28 00:00:11;;;;;;;1.05;0.77;;;15.80;99.90;;;;;;6224147;23;20020;-86
2021/06/28 00:02:39;;;;;;;1.02;1.00;;;15.80;99.90;;;;;;6161688;23;20024;-86
2021/06/28 00:05:10;;;;;;;0.80;0.80;;;15.70;99.90;;;;;;6162151;23;20032;-86
2021/06/28 00:07:38;;;;;;;0.75;0.75;;;15.70;99.90;;;;;;6186570;23;20020;-86
2021/06/28 00:10:07;;;;;;;1.00;1.00;;;15.60;99.90;;;;;;6186515;23;20028;-86
2021/06/28 00:12:57;;;;;;;0.70;0.70;;;15.50;99.90;;;;;;5155969;27;20357;-88
2021/06/28 00:15:29;;;;;;;1.00;0.90;;;15.40;99.90;;;;;;5107570;28;20056;-88
2021/06/28 00:17:58;;;;;;;1.20;0.93;;;15.50;99.90;;;;;;5106487;28;20047;-88
2021/06/28 00:20:26;;;;;;;0.88;0.88;;;15.60;99.90;;;;;;5106652;27;20051;-88
2021/06/28 00:22:54;;;;;;;1.65;1.55;;;15.60;99.90;;;;;;5110140;28;20062;-88
2021/06/28 00:25:24;;;;;;;1.30;1.20;;;15.50;99.90;;;;;;5091396;28;20043;-89
2021/06/28 00:27:51;;;;;;;11.15;4.13;;;15.40;99.90;;;;;;5073798;28;20055;-88
2021/06/28 00:30:31;;;;;;;1.42;1.33;;;15.40;99.90;;;;;;5056640;28;20041;-88
2021/06/28 00:32:59;;;;;;;0.95;0.95;;;15.40;99.90;;;;;;5091295;28;20040;-84
2021/06/28 00:35:27;;;;;;;1.58;0.82;;;15.30;99.90;;;;;;5089628;28;20051;-84
2021/06/28 00:37:55;;;;;;;1.70;1.60;;;15.30;99.90;;;;;;5103622;28;20047;-85
2021/06/28 00:40:24;;;;;;;1.02;1.02;;;15.40;99.90;;;;;;5126521;28;20047;-85
2021/06/28 00:42:52;;;;;;;2.88;0.73;;;15.40;99.90;;;;;;5106319;28;20051;-84
2021/06/28 00:45:21;;;;;;;1.00;1.00;;;15.40;99.90;;;;;;5085923;28;20051;-84
2021/06/28 00:47:50;;;;;;;1.00;1.00;;;15.30;99.90;;;;;;5069706;28;20056;-85
2021/06/28 00:50:20;;;;;;;1.73;0.90;;;15.30;99.90;;;;;;5101216;28;20048;-85
2021/06/28 00:52:55;;;;;;;1.38;1.27;;;15.20;99.90;;;;;;5105724;28;20055;-85
2021/06/28 00:55:23;;;;;;;0.60;0.60;;;15.10;99.90;;;;;;5103367;28;20079;-85
2021/06/28 00:57:52;;;;;;;0.98;0.98;;;15.10;99.90;;;;;;5068964;28;20048;-85
2021/06/28 01:00:20;;;;;;;1.10;1.10;;;15.10;99.90;;;;;;5069916;28;20052;-85
2021/06/28 01:02:49;;;;;;;0.93;0.93;;;15.10;99.90;;;;;;5085271;28;20051;-85
2021/06/28 01:05:20;;;;;;;1.90;1.77;;;15.20;99.90;;;;;;5068743;28;20043;-85
2021/06/28 01:07:48;;;;;;;1.40;1.30;;;15.30;99.90;;;;;;5068721;28;20049;-84
2021/06/28 01:10:19;;;;;;;1.40;1.30;;;15.20;99.90;;;;;;5101422;28;20048;-85
2021/06/28 01:12:49;;;;;;;0.98;0.88;;;15.10;99.90;;;;;;5106399;28;20396;-84
2021/06/28 01:15:19;;;;;;;0.95;0.95;;;15.00;99.90;;;;;;5106453;28;20052;-84
2021/06/28 01:17:47;;;;;;;4.15;1.25;;;15.00;99.90;;;;;;5110970;28;20040;-85
2021/06/28 01:20:20;;;;;;;2.15;1.48;;;14.90;99.90;;;;;;5109770;28;20043;-85
2021/06/28 01:22:54;;;;;;;1.08;0.95;;;14.80;99.90;;;;;;5119506;27;20044;-85
2021/06/28 01:25:25;;;;;;;2.80;1.10;;;14.80;99.90;;;;;;5102835;28;20040;-84
2021/06/28 01:27:53;;;;;;;1.48;1.27;;;14.80;99.90;;;;;;5113663;28;20059;-85
2021/06/28 01:30:26;;;;;;;1.38;1.23;;;14.80;99.90;;;;;;5112226;28;20043;-84
2021/06/28 01:32:55;;;;;;;4.05;1.30;;;14.80;99.90;;;;;;5094487;28;20043;-84
2021/06/28 01:35:23;;;;;;;1.02;1.02;;;14.70;99.90;;;;;;5112018;28;20397;-85
2021/06/28 01:37:52;;;;;;;1.30;1.20;;;14.70;99.90;;;;;;5096662;28;20401;-84
2021/06/28 01:40:20;;;;;;;1.52;1.42;;;14.80;99.90;;;;;;5075672;28;20048;-85
2021/06/28 01:42:49;;;;;;;1.25;1.15;;;14.80;99.90;;;;;;5090847;28;20051;-85
2021/06/28 01:45:20;;;;;;;1.30;1.20;;;14.80;99.90;;;;;;5091852;28;20051;-85
2021/06/28 01:47:51;;;;;;;3.28;1.75;;;14.80;99.90;;;;;;5092107;28;20052;-85
2021/06/28 01:50:22;;;;;;;2.10;1.35;;;14.80;99.90;;;;;;5074542;28;20048;-85
2021/06/28 01:52:50;;;;;;;1.73;1.63;;;14.80;99.90;;;;;;5073897;28;20530;-84
2021/06/28 01:55:19;;;;;;;2.88;2.67;;;14.90;99.90;;;;;;5061994;28;20062;-85
2021/06/28 01:57:59;;;;;;;1.13;1.13;;;15.00;99.90;;;;;;5094521;28;20043;-84
2021/06/28 02:00:29;;;;;;;1.90;1.80;;;15.00;99.90;;;;;;5094903;28;20501;-87
2021/06/28 02:03:07;;;;;;;2.40;1.40;;;14.90;99.90;;;;;;5112271;28;20471;-87
2021/06/28 02:05:39;;;;;;;1.85;1.70;;;15.00;99.90;;;;;;5078349;28;20047;-85
2021/06/28 02:08:12;;;;;;;6.40;1.33;;;14.90;99.90;;;;;;5078071;28;20055;-86
2021/06/28 02:10:43;;;;;;;4.03;1.27;;;14.90;99.90;;;;;;5094278;28;20044;-85
2021/06/28 02:13:11;;;;;;;3.80;1.50;;;15.00;99.90;;;;;;5111293;28;20372;-85
2021/06/28 02:15:38;;;;;;;5.88;1.70;;;15.10;99.90;;;;;;5113017;28;20052;-85
2021/06/28 02:18:08;;;;;;;2.65;1.02;;;15.20;99.90;;;;;;5111437;28;20715;-85
2021/06/28 02:20:36;;;;;;;1.50;1.17;;;15.10;99.90;;;;;;5111134;28;20052;-85
2021/06/28 02:23:29;;;;;;;1.65;1.40;;;15.10;99.90;;;;;;5111772;28;20056;-85
2021/06/28 02:26:02;;;;;;;1.60;1.50;;;15.10;99.90;;;;;;5102964;28;20036;-85
2021/06/28 02:28:33;;;;;;;1.10;1.08;;;15.10;99.90;;;;;;5083891;28;20485;-85
2021/06/28 02:31:03;;;;;;;2.42;1.50;;;15.10;99.90;;;;;;5084825;28;20048;-85
2021/06/28 02:33:32;;;;;;;1.37;1.27;;;15.10;99.90;;;;;;5073286;28;20055;-85
2021/06/28 02:36:00;;;;;;;1.42;1.33;;;15.00;99.90;;;;;;5090290;28;20048;-85
2021/06/28 02:38:28;;;;;;;1.55;1.40;;;15.00;99.90;;;;;;5054184;28;20051;-85
2021/06/28 02:40:56;;;;;;;1.42;1.33;;;15.00;99.90;;;;;;5052609;28;20048;-85
2021/06/28 02:43:45;;;;;;;1.45;1.23;;;15.00;99.90;;;;;;5009500;28;20067;-84
2021/06/28 02:46:14;;;;;;;1.48;1.38;;;15.00;99.90;;;;;;5059710;28;20045;-85
2021/06/28 02:48:42;;;;;;;3.33;1.80;;;15.00;99.90;;;;;;5070251;28;20401;-84
2021/06/28 02:51:13;;;;;;;1.50;1.40;;;14.90;99.90;;;;;;5070599;28;20498;-84
2021/06/28 02:53:41;;;;;;;2.00;1.70;;;14.80;99.90;;;;;;5068926;28;20079;-85
2021/06/28 02:56:12;;;;;;;1.42;1.33;;;14.70;99.90;;;;;;5061869;28;20056;-86
2021/06/28 02:58:48;;;;;;;1.85;1.58;;;14.80;99.90;;;;;;5069466;28;20052;-85
2021/06/28 03:01:18;;;;;;;1.65;1.55;;;14.80;99.90;;;;;;5067071;28;20048;-85
2021/06/28 03:04:03;;;;;;;2.53;1.00;;;14.80;99.90;;;;;;5170884;27;20371;-85
2021/06/28 03:06:48;;;;;;;1.92;1.40;;;14.80;99.90;;;;;;5048338;27;20489;-83
2021/06/28 03:09:33;;;;;;;1.40;1.30;;;14.80;99.90;;;;;;5037720;27;20390;-83
2021/06/28 03:12:17;;;;;;;1.60;1.50;;;14.70;99.90;;;;;;5068485;28;20382;-83
2021/06/28 03:14:59;;;;;;;3.90;1.55;;;14.80;99.90;;;;;;5068240;28;20375;-82
2021/06/28 03:17:46;;;;;;;1.60;1.50;;;14.80;99.90;;;;;;5027050;27;20770;-83
2021/06/28 03:20:27;;;;;;;2.38;2.17;;;14.70;99.90;;;;;;5081396;28;20382;-83
2021/06/28 03:23:09;;;;;;;1.50;1.40;;;14.70;99.90;;;;;;5067688;28;20379;-83
2021/06/28 03:25:54;;;;;;;1.33;1.23;;;14.60;99.90;;;;;;5107357;27;20447;-84
2021/06/28 03:28:39;;;;;;;1.92;1.73;;;14.60;99.90;;;;;;5080419;28;20382;-83
2021/06/28 03:31:23;;;;;;;2.45;1.63;;;14.60;99.90;;;;;;5068169;28;21082;-82
2021/06/28 03:34:06;;;;;;;4.28;2.40;;;14.50;99.90;;;;;;5043488;28;20459;-84
2021/06/28 03:36:49;;;;;;;1.48;1.38;;;14.40;99.90;;;;;;5116021;27;20383;-84
2021/06/28 03:39:35;;;;;;;1.02;1.00;;;14.20;99.90;;;;;;5068206;28;20387;-82
2021/06/28 03:42:19;;;;;;;2.55;2.35;;;13.90;99.90;;;;;;5086739;27;20442;-85
2021/06/28 03:45:08;;;;;;;3.97;1.65;;;13.90;99.90;;;;;;5049392;27;20733;-82
2021/06/28 03:47:51;;;;;;;4.88;1.50;;;14.00;99.90;;;;;;5068142;28;20424;-83
2021/06/28 03:50:37;;;;;;;2.08;1.73;;;13.90;99.90;;;;;;5011062;27;20391;-85
2021/06/28 03:53:22;;;;;;;2.47;2.25;;;13.90;99.90;;;;;;5041440;27;20776;-84
2021/06/28 03:56:06;;;;;;;2.25;2.05;;;14.00;99.90;;;;;;5068125;28;20386;-83
2021/06/28 03:58:52;;;;;;;1.70;1.42;;;14.10;99.90;;;;;;5088549;27;20396;-85
2021/06/28 04:01:36;;;;;;;5.32;2.00;;;14.20;99.90;;;;;;5072777;27;1352146;-83
2021/06/28 04:04:20;;;;;;;4.82;1.98;;;14.30;99.90;;;;;;5169829;27;20114;-82
2021/06/28 04:06:59;;;;;;;1.38;1.27;;;14.30;99.90;;;;;;5068247;28;20383;-85
2021/06/28 04:09:43;;;;;;;4.95;1.90;;;14.40;99.90;;;;;;5033347;27;20391;-82
2021/06/28 04:12:28;;;;;;;6.22;1.65;;;14.40;99.90;;;;;;5064250;27;20413;-82
2021/06/28 04:15:15;;;;;;;2.60;2.40;;;14.40;99.90;;;;;;5068328;28;20513;-83
2021/06/28 04:17:58;;;;;;;5.35;1.98;;;14.40;99.90;;;;;;5108460;27;20124;-82
2021/06/28 04:20:42;;;;;;;1.98;1.67;;;14.50;99.90;;;;;;5164082;27;20374;-84
2021/06/28 04:23:26;;;;;;;1.95;1.85;;;14.50;99.90;;;;;;5170090;27;20122;-82
2021/06/28 04:26:09;;;;;;;5.07;2.08;;;14.60;99.90;;;;;;5023452;27;20391;-84
2021/06/28 04:28:52;;;;;;;5.13;2.10;;;14.60;99.90;;;;;;5095390;27;20788;-83
2021/06/28 04:31:37;;;;;;;2.05;1.85;;;14.70;99.90;;;;;;5068035;28;20398;-83
2021/06/28 04:34:21;;;;;;;3.90;1.85;;;14.80;99.90;;;;;;5017345;27;20879;-83
2021/06/28 04:37:06;;;;;;;1.95;1.85;;;14.80;99.90;;;;;;5104378;27;20404;-83
2021/06/28 04:39:50;;;;;;;2.65;1.25;;;14.90;99.90;;;;;;5108802;27;20954;-83
2021/06/28 04:42:31;;;;;;;1.92;1.70;;;15.00;99.90;;;;;;5013576;27;20410;-83
2021/06/28 04:45:17;;;;;;;2.00;1.90;;;15.10;99.90;;;;;;5067604;27;20398;-85
2021/06/28 04:47:58;;;;;;;1.90;1.80;;;15.20;99.90;;;;;;5096191;27;20374;-83
2021/06/28 04:50:43;;;;;;;2.50;2.30;;;15.30;99.90;;;;;;5008712;27;20780;-83
2021/06/28 04:53:30;;;;;;;5.03;2.35;;;15.40;99.90;;;;;;5038282;27;20137;-85
2021/06/28 04:56:25;;;;;;;9.38;3.05;;;15.60;99.90;;;;;;5094005;27;1361443;-84
2021/06/28 04:59:10;;;;;;;2.63;2.42;;;15.80;99.90;;;;;;5108888;27;20430;-84
2021/06/28 05:02:00;;;;;;;3.60;2.97;;;15.90;99.90;;;;;;5069451;28;20400;-88
2021/06/28 05:04:50;;;;;;;3.95;3.22;;;16.00;99.90;;;;;;5120258;27;20495;-86
2021/06/28 05:07:32;;;;;;;4.25;2.55;;;16.10;99.90;;;;;;5129256;27;20112;-85
2021/06/28 05:10:17;;;;;;;2.28;2.10;;;16.30;99.90;;;;;;5068610;27;20794;-87
2021/06/28 05:13:01;;;;;;;4.63;2.40;;;16.50;99.90;;;;;;5050930;27;20395;-86
2021/06/28 05:15:44;;;;;;;3.95;2.50;;;16.60;99.90;;;;;;5150558;27;20374;-86
2021/06/28 05:18:35;;;;;;;2.45;2.25;;;16.80;99.90;;;;;;5085081;27;1368196;-87
2021/06/28 05:21:21;;;;;;;8.07;2.90;;;16.90;99.90;;;;;;5063690;28;20381;-92
2021/06/28 05:24:13;;;;;;;3.50;3.20;;;17.10;99.90;;;;;;5108590;27;20380;-87
2021/06/28 05:26:56;;;;;;;2.08;1.98;;;17.30;99.90;;;;;;5029095;27;20770;-87
2021/06/28 05:30:28;;;;;;;2.67;2.08;;;17.40;99.90;;;;;;5048786;27;20424;-86
2021/06/28 05:43:37;;;;;;;2.38;2.17;;;17.60;99.90;;;;;;5068277;28;20885;-87
2021/06/28 05:46:21;;;;;;;3.63;2.60;;;18.10;99.90;;;;;;5017962;27;20403;-87
2021/06/28 05:49:15;;;;;;;1.88;1.77;;;18.10;99.90;;;;;;5074102;27;20443;-87
2021/06/28 05:52:54;;;;;;;2.88;2.63;;;18.20;99.90;;;;;;5051069;28;21307;-88
2021/06/28 06:06:04;;;;;;;3.55;2.25;;;18.30;99.90;;;;;;5541126;22;15079789;-83
2021/06/28 06:08:56;;;;;;;2.35;2.15;;;18.40;99.90;;;;;;5067847;28;20973;-80
2021/06/28 06:11:40;;;;;;;2.83;2.55;;;18.40;99.90;;;;;;5129376;27;20424;-88
2021/06/28 06:14:45;;;;;;;4.68;3.22;;;18.50;99.90;;;;;;5017798;28;1410251;-87
2021/06/28 06:17:29;;;;;;;3.15;2.35;;;18.60;99.90;;;;;;5039778;27;20379;-87
2021/06/28 06:20:17;;;;;;;3.80;2.55;;;18.80;99.90;;;;;;5129213;27;20616;-87
2021/06/28 06:23:04;;;;;;;2.28;2.08;;;19.00;99.90;;;;;;5088119;27;20904;-87
2021/06/28 06:25:51;;;;;;;2.38;2.17;;;19.10;99.90;;;;;;5103602;27;20466;-87
2021/06/28 06:28:39;;;;;;;2.07;1.97;;;19.10;99.90;;;;;;5010578;27;1498304;-85
2021/06/28 06:31:23;;;;;;;3.03;2.38;;;19.20;99.90;;;;;;5089314;28;20382;-87
2021/06/28 06:34:46;;;;;;;3.08;2.28;;;19.40;99.90;;;;;;5055562;27;20416;-90
2021/06/28 06:37:31;;;;;;;2.30;1.98;;;19.50;99.90;;;;;;5088569;27;20436;-89
2021/06/28 06:40:18;;;;;;;2.20;2.08;;;19.60;99.90;;;;;;5089386;27;20385;-87
2021/06/28 06:43:03;;;;;;;2.28;2.17;;;19.80;99.90;;;;;;5171200;27;20104;-79
2021/06/28 06:45:50;;;;;;;2.88;2.00;;;19.80;99.90;;;;;;5104132;27;20356;-80
2021/06/28 06:48:35;;;;;;;2.97;2.78;;;20.00;99.90;;;;;;5062395;27;20382;-80
2021/06/28 06:51:33;;;;;;;3.20;2.83;;;20.00;99.90;;;;;;5081548;28;20446;-92
2021/06/28 06:54:37;;;;;;;3.38;2.20;;;20.00;99.90;;;;;;5031382;28;20447;-88
2021/06/28 06:57:40;;;;;;;2.85;2.17;;;20.10;99.90;;;;;;5035385;27;20398;-86
2021/06/28 07:00:28;;;;;;;2.55;2.40;;;20.20;99.90;;;;;;5086434;28;20319;-89
2021/06/28 07:03:15;;;;;;;3.03;2.75;;;20.30;99.90;;;;;;5089283;28;20754;-91
2021/06/28 07:06:02;;;;;;;2.17;2.00;;;20.50;99.90;;;;;;5040734;27;20489;-88
2021/06/28 07:08:47;;;;;;;4.40;3.22;;;20.80;99.90;;;;;;5078103;28;20762;-88
2021/06/28 07:11:30;;;;;;;3.15;2.95;;;21.00;99.90;;;;;;5081818;28;20393;-89
2021/06/28 07:14:14;;;;;;;1.98;1.88;;;21.10;99.90;;;;;;5077106;27;20800;-89
2021/06/28 07:16:59;;;;;;;2.92;2.50;;;21.20;99.90;;;;;;5053167;27;20442;-86
2021/06/28 07:19:41;;;;;;;2.83;2.63;;;21.30;99.90;;;;;;5069700;28;20367;-90
2021/06/28 07:22:25;;;;;;;2.30;2.10;;;21.70;99.90;;;;;;5042727;27;20415;-89
2021/06/28 07:25:12;;;;;;;4.25;3.03;;;21.80;99.90;;;;;;5146234;27;19965;-91
2021/06/28 07:28:07;;;;;;;3.08;1.80;;;21.90;99.90;;;;;;5130505;27;20298;-90
2021/06/28 07:41:23;;;;;;;2.60;2.40;;;22.90;99.90;;;;;;5111635;27;20459;-90
2021/06/28 07:44:10;;;;;;;5.18;2.25;;;24.70;99.90;;;;;;5084166;28;20440;-90
2021/06/28 07:46:59;;;;;;;2.30;2.15;;;24.60;99.90;;;;;;5088584;28;20731;-90
2021/06/28 07:49:50;;;;;;;5.63;2.67;;;23.70;99.90;;;;;;5032594;27;20410;-88
2021/06/28 07:52:49;;;;;;;2.08;1.88;;;23.20;99.90;;;;;;5051799;28;20900;-92
2021/06/28 07:55:54;;;;;;;2.28;2.08;;;23.30;99.90;;;;;;5128046;27;20358;-91
2021/06/28 08:09:05;;;;;;;1.92;1.38;;;23.30;99.90;;;;;;5074745;27;20446;-85
2021/06/28 08:11:57;;;;;;;2.15;1.95;;;23.50;99.90;;;;;;5068155;27;20390;-87
2021/06/28 08:15:07;;;;;;;2.95;2.40;;;23.50;99.90;;;;;;4966725;27;4661777;-87
2021/06/28 08:17:52;;;;;;;1.75;1.65;;;23.40;99.90;;;;;;5049851;27;20428;-86
2021/06/28 08:20:45;;;;;;;1.80;1.70;;;23.30;99.90;;;;;;5121960;27;20139;-89
2021/06/28 08:23:51;;;;;;;2.67;1.50;;;23.40;99.90;;;;;;5067477;28;20397;-87
2021/06/28 08:27:07;;;;;;;2.05;1.95;;;23.40;99.90;;;;;;5081130;27;20450;-88
2021/06/28 08:30:11;;;;;;;2.78;1.95;;;23.20;99.90;;;;;;5060096;27;20387;-90
2021/06/28 08:43:19;;;;;;;1.65;1.55;;;23.40;99.90;;;;;;6198285;22;1362629;-79
2021/06/28 08:46:03;;;;;;;1.60;1.50;;;23.40;99.90;;;;;;5025768;27;20441;-79
2021/06/28 08:48:47;;;;;;;2.10;2.00;;;23.50;99.90;;;;;;5100834;27;20387;-78
2021/06/28 08:51:31;;;;;;;2.95;2.08;;;23.50;99.90;;;;;;5068272;28;20401;-78
2021/06/28 08:54:17;;;;;;;1.88;1.60;;;23.70;99.90;;;;;;5019959;27;20398;-79
2021/06/28 08:57:01;;;;;;;3.00;2.70;;;23.90;99.90;;;;;;5050121;27;20981;-78
2021/06/28 08:59:46;;;;;;;1.90;1.80;;;23.90;99.90;;;;;;5129560;27;20171;-80
2021/06/28 09:02:32;;;;;;;7.75;2.63;;;23.90;99.90;;;;;;5013179;27;20880;-80
2021/06/28 09:05:16;;;;;;;1.90;1.80;;;23.80;99.90;;;;;;5044356;27;20879;-79
2021/06/28 09:08:12;;;;;;;2.47;2.28;;;23.80;99.90;;;;;;5108277;27;20437;-80
2021/06/28 09:10:58;;;;;;;2.53;2.08;;;23.80;99.90;;;;;;5068427;28;20386;-80
2021/06/28 09:13:46;;;;;;;2.60;1.75;;;23.90;99.90;;;;;;5034915;27;20499;-79
2021/06/28 09:16:30;;;;;;;2.03;1.92;;;24.00;99.90;;;;;;5166601;27;20110;-80
2021/06/28 09:19:16;;;;;;;2.25;2.05;;;24.10;99.90;;;;;;5050424;28;20392;-79
2021/06/28 09:22:02;;;;;;;2.13;2.03;;;24.20;99.90;;;;;;5025451;27;20503;-79
2021/06/28 09:24:49;;;;;;;2.25;2.13;;;24.30;99.90;;;;;;5056676;27;20379;-78
2021/06/28 09:27:44;;;;;;;1.95;1.85;;;24.40;99.90;;;;;;5068442;28;20724;-78
2021/06/28 09:30:29;;;;;;;1.80;1.70;;;24.40;99.90;;;;;;5015075;27;20394;-79
2021/06/28 09:33:19;;;;;;;1.92;1.83;;;24.40;99.90;;;;;;5045015;27;20856;-79
2021/06/28 09:36:19;;;;;;;1.83;1.42;;;24.40;99.90;;;;;;5068272;28;20386;-79
2021/06/28 09:39:19;;;;;;;2.00;1.52;;;24.40;99.90;;;;;;5067874;28;20823;-79
2021/06/28 09:42:08;;;;;;;1.88;1.77;;;24.40;99.90;;;;;;5024524;27;20975;-79
2021/06/28 09:45:16;;;;;;;1.65;1.55;;;24.50;99.90;;;;;;5115411;27;20123;-78
2021/06/28 09:48:21;;;;;;;1.75;1.65;;;24.50;99.90;;;;;;5068208;28;20379;-78
2021/06/28 09:51:20;;;;;;;1.50;1.38;;;24.60;99.90;;;;;;5108572;27;20147;-81
2021/06/28 09:54:20;;;;;;;1.50;1.40;;;24.60;99.90;;;;;;5156618;27;20399;-78
2021/06/28 09:57:19;;;;;;;1.67;1.25;;;24.70;99.90;;;;;;5063916;27;20479;-80
2021/06/28 10:00:22;;;;;;;2.25;1.17;;;24.80;99.80;;;;;;4633602;27;15103782;-79
2021/06/28 10:03:34;;;;;;;1.95;1.23;;;24.80;99.90;;;;;;5108122;27;20414;-80
2021/06/28 10:06:32;;;;;;;1.67;1.42;;;24.70;99.90;;;;;;5034128;27;20408;-79
2021/06/28 10:10:12;;;;;;;1.55;1.45;;;24.60;99.90;;;;;;5109508;27;20440;-79
2021/06/28 10:13:11;;;;;;;1.38;1.20;;;24.90;99.90;;;;;;5068801;27;20865;-80
2021/06/28 10:16:14;;;;;;;2.67;1.58;;;24.90;99.90;;;;;;5127826;27;20837;-79
2021/06/28 10:19:15;;;;;;;1.33;1.23;;;25.00;99.90;;;;;;5117837;27;20879;-78
2021/06/28 10:22:18;;;;;;;1.50;1.40;;;25.00;99.90;;;;;;5038390;27;20555;-79
2021/06/28 10:25:21;;;;;;;1.48;1.38;;;25.00;99.90;;;;;;5058862;27;20422;-81
2021/06/28 10:28:22;;;;;;;1.60;1.50;;;25.00;99.90;;;;;;5190473;27;20375;-80
2021/06/28 10:31:06;;;;;;;2.22;2.05;;;25.00;99.90;;;;;;4513153;27;18491251;-82
2021/06/28 10:34:09;;;;;;;1.80;1.70;;;25.10;99.90;;;;;;5071987;27;20517;-82
2021/06/28 10:37:38;;;;;;;1.60;1.50;;;25.20;99.90;;;;;;5126176;27;19998;-82
2021/06/28 10:41:06;;;;;;;4.35;3.08;;;25.20;99.90;;;;;;5081397;27;20407;-82
2021/06/28 10:44:15;;;;;;;1.42;1.33;;;25.30;99.90;;;;;;5088739;27;20492;-83
2021/06/28 10:47:08;;;;;;;1.50;1.42;;;25.30;99.90;;;;;;5068531;28;20393;-81
2021/06/28 10:49:52;;;;;;;1.65;1.55;;;25.30;99.90;;;;;;5130633;27;19920;-80
2021/06/28 10:52:50;;;;;;;2.67;1.83;;;25.40;99.90;;;;;;5038920;28;20490;-79
2021/06/28 10:55:38;;;;;;;2.55;2.03;;;25.50;99.90;;;;;;5034295;28;20407;-80
2021/06/28 10:58:28;;;;;;;58.88;8.32;;;25.50;99.90;;;;;;5008296;28;20042;-84
2021/06/28 11:01:32;;;;;;;2.58;2.00;;;25.60;99.90;;;;;;5008508;28;20049;-80
2021/06/28 11:04:27;;;;;;;1.58;1.48;;;25.70;99.90;;;;;;5008612;28;20046;-81
2021/06/28 11:07:15;;;;;;;1.95;1.77;;;25.80;99.90;;;;;;4970487;28;20043;-80
2021/06/28 11:10:02;;;;;;;1.50;1.40;;;25.70;99.90;;;;;;4967015;28;20039;-80
2021/06/28 11:12:55;;;;;;;1.58;1.48;;;25.80;99.90;;;;;;4980382;28;20043;-80
2021/06/28 11:15:41;;;;;;;5.47;1.55;;;25.90;99.90;;;;;;4966919;28;20055;-79
2021/06/28 11:18:29;;;;;;;1.42;1.33;;;25.90;99.90;;;;;;4960478;28;20043;-80
2021/06/28 11:21:40;;;;;;;4.57;1.25;;;25.90;99.90;;;;;;4965818;28;20047;-81
2021/06/28 11:24:11;;;;;;;4.43;2.90;;;25.90;99.90;;;;;;4982053;28;20063;-77
2021/06/28 11:27:17;;;;;;;2.33;1.27;;;26.00;99.90;;;;;;5088595;27;20407;-76
2021/06/28 11:30:24;;;;;;;3.05;1.75;;;26.20;99.10;;;;;;5075405;27;20426;-76
2021/06/28 11:33:36;;;;;;;8.20;1.73;;;26.10;97.70;;;;;;5088812;27;20356;-77
2021/06/28 11:36:24;;;;;;;1.50;1.40;;;26.10;98.80;;;;;;5067452;28;20064;-78
2021/06/28 11:38:54;;;;;;;1.52;1.40;;;26.10;99.00;;;;;;5046523;28;20052;-78
2021/06/28 11:41:46;;;;;;;1.50;1.40;;;26.10;99.60;;;;;;5063687;28;20835;-77
2021/06/28 11:44:53;;;;;;;1.33;1.23;;;26.20;99.00;;;;;;5101613;27;20899;-77
2021/06/28 11:47:58;;;;;;;1.63;1.52;;;26.30;99.60;;;;;;5088751;27;21073;-78
2021/06/28 11:50:59;;;;;;;2.03;1.83;;;26.30;98.70;;;;;;5191309;27;20390;-78
2021/06/28 11:54:02;;;;;;;1.70;1.60;;;26.30;98.70;;;;;;5162245;27;20382;-78
2021/06/28 11:57:07;;;;;;;2.35;1.48;;;26.40;99.80;;;;;;5093190;27;20413;-77
2021/06/28 12:00:13;;;;;;;1.55;1.45;;;26.50;96.70;;;;;;5115806;27;20499;-78
2021/06/28 12:03:14;;;;;;;3.83;1.30;;;26.50;94.60;;;;;;4490906;27;18093828;-77
2021/06/28 12:06:12;;;;;;;1.50;1.40;;;26.50;97.50;;;;;;5042420;27;20404;-80
2021/06/28 12:09:16;;;;;;;3.92;1.83;;;26.50;97.00;;;;;;5066665;27;20416;-78
2021/06/28 12:12:35;;;;;;;1.38;1.27;;;26.60;97.30;;;;;;5140934;27;20386;-79
2021/06/28 12:15:47;;;;;;;1.55;1.08;;;26.60;97.70;;;;;;5065420;28;20864;-82
2021/06/28 12:19:09;;;;;;;2.58;1.52;;;26.70;97.80;;;;;;5149474;27;20382;-81
2021/06/28 12:22:19;;;;;;;1.10;1.00;;;26.80;97.80;;;;;;5054722;27;20423;-81
2021/06/28 12:25:21;;;;;;;2.88;1.75;;;26.70;97.00;;;;;;5111742;27;20358;-80
2021/06/28 12:28:09;;;;;;;1.35;1.25;;;26.70;98.00;;;;;;5068334;28;20432;-84
2021/06/28 12:30:55;;;;;;;5.38;1.40;;;26.80;98.00;;;;;;5008740;27;20394;-80
2021/06/28 12:33:40;;;;;;;1.75;1.65;;;26.70;98.10;;;;;;5136044;27;20903;-82
2021/06/28 12:36:25;;;;;;;1.17;1.13;;;26.70;99.80;;;;;;5060818;27;20138;-81
2021/06/28 12:39:10;;;;;;;4.55;1.65;;;26.80;95.70;;;;;;5067896;28;20457;-81
2021/06/28 12:42:12;;;;;;;3.30;1.88;;;26.90;96.20;;;;;;5096770;27;20411;-84
2021/06/28 12:55:41;;;;;;;2.30;2.08;;;26.90;96.20;;;;;;5548151;22;15088084;-83
2021/06/28 12:59:01;;;;;;;5.40;1.95;;;26.90;97.50;;;;;;5107543;27;20353;-84
2021/06/28 13:02:14;;;;;;;4.43;1.92;;;27.00;95.90;;;;;;5131572;27;20748;-84
2021/06/28 13:05:11;;;;;;;2.15;1.52;;;27.10;98.10;;;;;;4481040;27;18721601;-84
2021/06/28 13:19:17;;;;;;;1.33;1.23;;;27.10;95.10;;;;;;5453620;22;18694362;-85
2021/06/28 13:33:39;;;;;;;0.93;0.93;;;27.20;95.40;;;;;;5050611;27;20758;-86
2021/06/28 13:37:16;;;;;;;1.75;1.52;;;27.50;94.60;;;;;;5088390;27;20424;-90
2021/06/28 13:40:39;;;;;;;1.02;1.02;;;27.40;93.60;;;;;;5154595;27;20170;-88
2021/06/28 13:43:42;;;;;;;1.75;1.65;;;27.40;93.10;;;;;;5128222;27;20375;-85
2021/06/28 13:47:41;;;;;;;2.85;1.25;;;27.30;92.80;;;;;;5067624;28;20818;-89
2021/06/28 13:50:47;;;;;;;1.75;1.58;;;27.40;93.30;;;;;;5041539;22;20048;-81
2021/06/28 13:53:46;;;;;;;1.30;1.20;;;27.50;93.40;;;;;;5052307;27;20416;-81
2021/06/28 13:56:41;;;;;;;2.08;1.88;;;27.50;93.40;;;;;;5076685;27;20416;-84
2021/06/28 13:59:43;;;;;;;3.53;1.50;;;27.50;94.00;;;;;;5089389;27;20414;-86
2021/06/28 14:02:46;;;;;;;3.00;1.67;;;27.60;94.40;;;;;;5047723;28;20141;-85
2021/06/28 14:05:46;;;;;;;2.67;2.47;;;27.60;95.80;;;;;;5054601;27;20404;-84
2021/06/28 14:08:46;;;;;;;2.45;1.88;;;27.70;94.90;;;;;;5078537;27;20404;-86
2021/06/28 14:11:49;;;;;;;2.88;1.50;;;27.80;93.70;;;;;;5193415;27;20375;-85
2021/06/28 14:15:03;;;;;;;2.03;1.92;;;27.80;94.40;;;;;;5132234;27;20881;-85
2021/06/28 14:18:03;;;;;;;3.92;1.80;;;27.70;93.50;;;;;;5076797;27;20889;-88
2021/06/28 14:20:57;;;;;;;2.05;1.95;;;27.60;94.10;;;;;;5107216;27;20400;-84
2021/06/28 14:23:56;;;;;;;1.35;1.25;;;27.50;94.70;;;;;;5099574;27;20423;-85
2021/06/28 14:26:52;;;;;;;2.60;2.08;;;27.40;93.60;;;;;;5029721;27;20416;-82
2021/06/28 14:30:04;;;;;;;1.60;1.50;;;27.40;96.30;;;;;;5088686;27;20406;-85
2021/06/28 14:33:14;;;;;;;1.30;1.30;;;27.50;94.10;;;;;;5127223;27;19943;-83
2021/06/28 14:36:24;;;;;;;1.65;1.55;;;27.60;94.90;;;;;;5131031;27;20404;-86
2021/06/28 14:39:51;;;;;;;1.60;1.50;;;27.70;91.30;;;;;;5090699;27;20403;-85
2021/06/28 14:42:59;;;;;;;4.43;2.15;;;27.70;93.10;;;;;;5132102;27;20408;-85
2021/06/28 14:45:55;;;;;;;1.50;1.40;;;27.70;92.80;;;;;;5051204;27;20436;-83
2021/06/28 14:49:00;;;;;;;2.20;1.80;;;27.70;92.80;;;;;;5112799;27;20410;-86
2021/06/28 14:52:02;;;;;;;2.35;1.50;;;27.80;93.20;;;;;;5192841;27;20378;-85
2021/06/28 14:55:00;;;;;;;;;;;;;;;;;;;;;
2021/06/28 14:58:27;;;;;;;1.45;1.40;;;27.90;93.30;;;;;;5157024;27;20390;-88
2021/06/28 15:12:03;;;;;;;3.55;2.08;;;27.90;93.00;;;;;;5087928;27;20423;-82
2021/06/28 15:15:20;;;;;;;1.67;1.55;;;27.80;92.70;;;;;;5088768;27;20449;-83
2021/06/28 15:18:28;;;;;;;2.63;1.63;;;27.50;92.30;;;;;;5056787;27;21034;-81
2021/06/28 15:32:05;;;;;;;3.17;1.80;;;27.50;92.70;;;;;;5170368;27;20412;-75
2021/06/28 15:35:02;;;;;;;3.00;2.70;;;28.00;92.40;;;;;;5108322;27;20666;-75
2021/06/28 15:38:11;;;;;;;5.13;2.75;;;28.00;94.00;;;;;;5083325;27;20414;-75
2021/06/28 15:41:12;;;;;;;3.40;2.60;;;27.90;92.90;;;;;;5093321;27;20364;-81
2021/06/28 15:44:14;;;;;;;11.57;3.00;;;27.90;91.50;;;;;;5108493;27;20145;-82
2021/06/28 15:47:14;;;;;;;3.70;3.40;;;27.80;91.90;;;;;;5085706;28;20332;-81
2021/06/28 15:50:33;;;;;;;2.97;2.78;;;27.70;92.60;;;;;;5153104;27;20394;-82
2021/06/28 15:53:33;;;;;;;2.97;2.58;;;27.70;91.80;;;;;;5169201;27;20390;-83
2021/06/28 15:56:36;;;;;;;5.38;3.22;;;27.70;90.90;;;;;;5105594;27;20755;-82
2021/06/28 15:59:44;;;;;;;2.65;2.45;;;27.80;92.00;;;;;;5130603;27;20404;-80
2021/06/28 16:02:50;;;;;;;3.03;2.80;;;27.80;92.00;;;;;;5149796;27;20401;-79
2021/06/28 16:05:55;;;;;;;2.67;2.55;;;27.70;91.00;;;;;;5089143;27;20361;-80
2021/06/28 16:08:55;;;;;;;2.85;2.65;;;27.70;92.80;;;;;;5073422;27;20412;-79
2021/06/28 16:12:07;;;;;;;3.45;2.97;;;27.70;92.50;;;;;;5092162;27;20841;-79
2021/06/28 16:15:08;;;;;;;5.45;2.88;;;27.70;92.80;;;;;;5120166;27;20904;-79
2021/06/28 16:18:10;;;;;;;4.00;3.60;;;27.70;93.10;;;;;;5077038;27;20453;-74
2021/06/28 16:21:13;;;;;;;4.05;3.65;;;27.80;92.70;;;;;;5085670;27;20342;-75
2021/06/28 16:24:15;;;;;;;4.03;3.72;;;27.90;92.30;;;;;;5088142;27;20968;-75
2021/06/28 16:27:14;;;;;;;3.50;3.30;;;27.80;92.00;;;;;;5088827;27;20418;-75